sensor_id;sensor_type;location;lat;lon;timestamp;pressure;altitude;pressure_sealevel;temperature;humidity
64292;BME280;50628;51.008;13.658;2024-01-07T00:04:20;99514.13;;;-0.67;100.00
64292;BME280;50628;51.008;13.658;2024-01-07T00:09:23;99518.09;;;-0.58;100.00
64292;BME280;50628;51.008;13.658;2024-01-07T00:14:25;99522.56;;;-0.87;100.00
64292;BME280;50628;51.008;13.658;2024-01-07T00:19:27;99518.19;;;-0.83;100.00
64292;BME280;50628;51.008;13.658;2024-01-07T00:24:33;99527.22;;;-0.74;100.00
64292;BME280;50628;51.008;13.658;2024-01-07T00:29:34;99526.41;;;-0.98;100.00
64292;BME280;50628;51.008;13.658;2024-01-07T00:34:36;99536.72;;;-0.78;100.00
64292;BME280;50628;51.008;13.658;2024-01-07T00:39:40;99534.88;;;-0.74;100.00
64292;BME280;50628;51.008;13.658;2024-01-07T00:44:42;99545.38;;;-0.82;100.00
64292;BME280;50628;51.008;13.658;2024-01-07T00:49:44;99543.31;;;-0.72;100.00
64292;BME280;50628;51.008;13.658;2024-01-07T00:54:48;99549.84;;;-0.87;100.00
64292;BME280;50628;51.008;13.658;2024-01-07T00:59:49;99557.53;;;-1.12;100.00
64292;BME280;50628;51.008;13.658;2024-01-07T01:04:52;99565.25;;;-1.14;100.00
64292;BME280;50628;51.008;13.658;2024-01-07T01:09:55;99572.59;;;-1.04;100.00
64292;BME280;50628;51.008;13.658;2024-01-07T01:14:57;99579.81;;;-1.16;100.00
64292;BME280;50628;51.008;13.658;2024-01-07T01:19:58;99581.44;;;-1.13;100.00
64292;BME280;50628;51.008;13.658;2024-01-07T01:25:04;99580.09;;;-1.23;100.00
64292;BME280;50628;51.008;13.658;2024-01-07T01:30:07;99586.28;;;-1.31;100.00
64292;BME280;50628;51.008;13.658;2024-01-07T01:35:09;99583.25;;;-1.17;100.00
64292;BME280;50628;51.008;13.658;2024-01-07T01:40:13;99582.56;;;-1.22;100.00
64292;BME280;50628;51.008;13.658;2024-01-07T01:45:15;99594.66;;;-1.27;100.00
64292;BME280;50628;51.008;13.658;2024-01-07T01:50:17;99598.16;;;-1.29;100.00
64292;BME280;50628;51.008;13.658;2024-01-07T01:55:20;99599.50;;;-1.44;100.00
64292;BME280;50628;51.008;13.658;2024-01-07T02:00:22;99607.66;;;-1.33;100.00
64292;BME280;50628;51.008;13.658;2024-01-07T02:05:24;99609.78;;;-1.46;100.00
64292;BME280;50628;51.008;13.658;2024-01-07T02:10:27;99613.56;;;-1.58;100.00
64292;BME280;50628;51.008;13.658;2024-01-07T02:15:34;99619.47;;;-1.56;100.00
64292;BME280;50628;51.008;13.658;2024-01-07T02:20:36;99618.47;;;-1.52;100.00
64292;BME280;50628;51.008;13.658;2024-01-07T02:25:39;99632.22;;;-1.56;100.00
64292;BME280;50628;51.008;13.658;2024-01-07T02:30:41;99641.66;;;-1.58;100.00
64292;BME280;50628;51.008;13.658;2024-01-07T02:35:43;99637.22;;;-1.53;100.00
64292;BME280;50628;51.008;13.658;2024-01-07T02:40:46;99641.09;;;-1.67;100.00
64292;BME280;50628;51.008;13.658;2024-01-07T02:45:48;99637.75;;;-1.69;100.00
64292;BME280;50628;51.008;13.658;2024-01-07T02:50:50;99645.59;;;-1.49;100.00
64292;BME280;50628;51.008;13.658;2024-01-07T02:55:53;99657.16;;;-1.64;100.00
64292;BME280;50628;51.008;13.658;2024-01-07T03:00:55;99655.00;;;-1.76;100.00
64292;BME280;50628;51.008;13.658;2024-01-07T03:05:58;99659.56;;;-1.59;100.00
64292;BME280;50628;51.008;13.658;2024-01-07T03:11:05;99657.09;;;-1.62;100.00
64292;BME280;50628;51.008;13.658;2024-01-07T03:16:07;99657.31;;;-1.68;100.00
64292;BME280;50628;51.008;13.658;2024-01-07T03:21:16;99661.09;;;-1.54;100.00
64292;BME280;50628;51.008;13.658;2024-01-07T03:26:20;99659.47;;;-1.56;100.00
64292;BME280;50628;51.008;13.658;2024-01-07T03:31:22;99659.41;;;-1.55;100.00
64292;BME280;50628;51.008;13.658;2024-01-07T03:36:24;99664.06;;;-1.67;100.00
64292;BME280;50628;51.008;13.658;2024-01-07T03:41:27;99664.59;;;-1.56;100.00
64292;BME280;50628;51.008;13.658;2024-01-07T03:46:29;99666.81;;;-1.47;100.00
64292;BME280;50628;51.008;13.658;2024-01-07T03:51:31;99674.09;;;-1.61;100.00
64292;BME280;50628;51.008;13.658;2024-01-07T03:56:34;99679.72;;;-1.52;100.00
64292;BME280;50628;51.008;13.658;2024-01-07T04:01:36;99682.91;;;-1.45;100.00
64292;BME280;50628;51.008;13.658;2024-01-07T04:06:38;99686.69;;;-1.57;100.00
64292;BME280;50628;51.008;13.658;2024-01-07T04:11:42;99688.81;;;-1.69;100.00
64292;BME280;50628;51.008;13.658;2024-01-07T04:16:44;99696.56;;;-1.72;100.00
64292;BME280;50628;51.008;13.658;2024-01-07T04:21:46;99697.47;;;-1.75;100.00
64292;BME280;50628;51.008;13.658;2024-01-07T04:26:49;99697.69;;;-1.81;100.00
64292;BME280;50628;51.008;13.658;2024-01-07T04:31:51;99706.75;;;-1.72;100.00
64292;BME280;50628;51.008;13.658;2024-01-07T04:36:53;99711.66;;;-1.66;100.00
64292;BME280;50628;51.008;13.658;2024-01-07T04:41:56;99710.81;;;-1.65;100.00
64292;BME280;50628;51.008;13.658;2024-01-07T04:46:58;99718.19;;;-1.56;100.00
64292;BME280;50628;51.008;13.658;2024-01-07T04:51:59;99718.00;;;-1.52;100.00
64292;BME280;50628;51.008;13.658;2024-01-07T04:57:03;99730.69;;;-1.77;100.00
64292;BME280;50628;51.008;13.658;2024-01-07T05:02:05;99736.72;;;-1.79;100.00
64292;BME280;50628;51.008;13.658;2024-01-07T05:07:07;99735.16;;;-1.83;100.00
64292;BME280;50628;51.008;13.658;2024-01-07T05:12:10;99742.84;;;-1.85;100.00
64292;BME280;50628;51.008;13.658;2024-01-07T05:17:12;99742.03;;;-1.85;100.00
64292;BME280;50628;51.008;13.658;2024-01-07T05:22:14;99744.75;;;-1.91;100.00
64292;BME280;50628;51.008;13.658;2024-01-07T05:27:17;99748.88;;;-1.87;100.00
64292;BME280;50628;51.008;13.658;2024-01-07T05:32:19;99763.81;;;-2.03;100.00
64292;BME280;50628;51.008;13.658;2024-01-07T05:37:21;99758.81;;;-2.08;100.00
64292;BME280;50628;51.008;13.658;2024-01-07T05:42:24;99774.81;;;-2.01;100.00
64292;BME280;50628;51.008;13.658;2024-01-07T05:47:26;99776.47;;;-2.00;100.00
64292;BME280;50628;51.008;13.658;2024-01-07T05:52:28;99780.28;;;-1.85;100.00
64292;BME280;50628;51.008;13.658;2024-01-07T05:57:31;99780.97;;;-2.10;100.00
64292;BME280;50628;51.008;13.658;2024-01-07T06:02:34;99789.56;;;-2.12;100.00
64292;BME280;50628;51.008;13.658;2024-01-07T06:07:36;99803.25;;;-1.85;100.00
64292;BME280;50628;51.008;13.658;2024-01-07T06:12:40;99794.34;;;-2.02;100.00
64292;BME280;50628;51.008;13.658;2024-01-07T06:17:41;99809.03;;;-2.10;100.00
64292;BME280;50628;51.008;13.658;2024-01-07T06:22:43;99814.19;;;-2.11;100.00
64292;BME280;50628;51.008;13.658;2024-01-07T06:27:47;99815.16;;;-2.17;100.00
64292;BME280;50628;51.008;13.658;2024-01-07T06:32:48;99823.09;;;-2.26;100.00
64292;BME280;50628;51.008;13.658;2024-01-07T06:37:50;99832.69;;;-2.36;100.00
64292;BME280;50628;51.008;13.658;2024-01-07T06:42:54;99848.09;;;-2.41;100.00
64292;BME280;50628;51.008;13.658;2024-01-07T06:47:56;99848.81;;;-2.35;100.00
64292;BME280;50628;51.008;13.658;2024-01-07T06:52:59;99854.81;;;-2.38;100.00
64292;BME280;50628;51.008;13.658;2024-01-07T06:58:02;99862.28;;;-2.30;100.00
64292;BME280;50628;51.008;13.658;2024-01-07T07:03:04;99865.09;;;-2.41;100.00
64292;BME280;50628;51.008;13.658;2024-01-07T07:08:06;99876.56;;;-2.25;100.00
64292;BME280;50628;51.008;13.658;2024-01-07T07:13:11;99878.50;;;-2.33;100.00
64292;BME280;50628;51.008;13.658;2024-01-07T07:18:15;99877.88;;;-2.43;100.00
64292;BME280;50628;51.008;13.658;2024-01-07T07:23:17;99890.34;;;-2.32;100.00
64292;BME280;50628;51.008;13.658;2024-01-07T07:28:20;99882.16;;;-2.45;100.00
64292;BME280;50628;51.008;13.658;2024-01-07T07:33:22;99888.97;;;-2.44;100.00
64292;BME280;50628;51.008;13.658;2024-01-07T07:38:24;99909.72;;;-2.59;100.00
64292;BME280;50628;51.008;13.658;2024-01-07T07:43:28;99916.56;;;-2.61;100.00
64292;BME280;50628;51.008;13.658;2024-01-07T07:48:30;99919.00;;;-2.56;100.00
64292;BME280;50628;51.008;13.658;2024-01-07T07:53:32;99926.75;;;-2.59;100.00
64292;BME280;50628;51.008;13.658;2024-01-07T07:58:35;99931.91;;;-2.28;100.00
64292;BME280;50628;51.008;13.658;2024-01-07T08:03:37;99937.00;;;-2.27;100.00
64292;BME280;50628;51.008;13.658;2024-01-07T08:08:39;99951.00;;;-2.45;100.00
64292;BME280;50628;51.008;13.658;2024-01-07T08:13:42;99944.50;;;-2.22;100.00
64292;BME280;50628;51.008;13.658;2024-01-07T08:18:45;99954.97;;;-2.33;100.00
64292;BME280;50628;51.008;13.658;2024-01-07T08:23:47;99954.59;;;-2.53;100.00
64292;BME280;50628;51.008;13.658;2024-01-07T08:28:51;99953.50;;;-2.43;100.00
64292;BME280;50628;51.008;13.658;2024-01-07T08:33:52;99970.34;;;-2.36;100.00
64292;BME280;50628;51.008;13.658;2024-01-07T08:38:54;99972.28;;;-2.47;100.00
64292;BME280;50628;51.008;13.658;2024-01-07T08:43:57;99976.06;;;-2.26;100.00
64292;BME280;50628;51.008;13.658;2024-01-07T08:48:59;99978.38;;;-2.53;100.00
64292;BME280;50628;51.008;13.658;2024-01-07T08:54:01;99992.03;;;-2.55;100.00
64292;BME280;50628;51.008;13.658;2024-01-07T08:59:05;99986.53;;;-2.38;100.00
64292;BME280;50628;51.008;13.658;2024-01-07T09:04:06;100001.25;;;-2.50;100.00
64292;BME280;50628;51.008;13.658;2024-01-07T09:09:08;99988.09;;;-2.70;100.00
64292;BME280;50628;51.008;13.658;2024-01-07T09:14:12;100000.22;;;-2.43;100.00
64292;BME280;50628;51.008;13.658;2024-01-07T09:19:14;100009.31;;;-2.31;100.00
64292;BME280;50628;51.008;13.658;2024-01-07T09:24:17;100016.13;;;-2.31;100.00
64292;BME280;50628;51.008;13.658;2024-01-07T09:29:21;100016.94;;;-2.67;100.00
64292;BME280;50628;51.008;13.658;2024-01-07T09:34:23;100016.94;;;-2.68;100.00
64292;BME280;50628;51.008;13.658;2024-01-07T09:39:25;100027.44;;;-2.43;100.00
64292;BME280;50628;51.008;13.658;2024-01-07T09:44:30;100021.34;;;-2.37;100.00
64292;BME280;50628;51.008;13.658;2024-01-07T09:49:33;100024.63;;;-2.32;100.00
64292;BME280;50628;51.008;13.658;2024-01-07T09:54:36;100014.88;;;-2.52;100.00
64292;BME280;50628;51.008;13.658;2024-01-07T09:59:39;100030.50;;;-2.66;100.00
64292;BME280;50628;51.008;13.658;2024-01-07T10:04:41;100027.22;;;-2.73;100.00
64292;BME280;50628;51.008;13.658;2024-01-07T10:09:44;100026.53;;;-2.41;100.00
64292;BME280;50628;51.008;13.658;2024-01-07T10:15:05;100037.91;;;-2.55;100.00
64292;BME280;50628;51.008;13.658;2024-01-07T10:20:08;100035.59;;;-2.66;100.00
64292;BME280;50628;51.008;13.658;2024-01-07T10:25:10;100043.66;;;-2.47;100.00
64292;BME280;50628;51.008;13.658;2024-01-07T10:30:15;100050.94;;;-2.32;100.00
64292;BME280;50628;51.008;13.658;2024-01-07T10:35:18;100049.91;;;-2.22;100.00
64292;BME280;50628;51.008;13.658;2024-01-07T10:40:23;100056.81;;;-2.67;100.00
64292;BME280;50628;51.008;13.658;2024-01-07T10:45:28;100055.16;;;-2.67;100.00
64292;BME280;50628;51.008;13.658;2024-01-07T10:50:30;100066.41;;;-2.77;100.00
64292;BME280;50628;51.008;13.658;2024-01-07T10:55:34;100054.09;;;-2.98;100.00
64292;BME280;50628;51.008;13.658;2024-01-07T11:00:38;100052.69;;;-2.71;100.00
64292;BME280;50628;51.008;13.658;2024-01-07T11:05:44;100057.44;;;-2.96;100.00
64292;BME280;50628;51.008;13.658;2024-01-07T11:10:57;100056.63;;;-2.97;100.00
64292;BME280;50628;51.008;13.658;2024-01-07T11:16:02;100064.28;;;-2.98;100.00
64292;BME280;50628;51.008;13.658;2024-01-07T11:21:04;100068.78;;;-3.13;100.00
64292;BME280;50628;51.008;13.658;2024-01-07T11:26:07;100069.44;;;-3.01;100.00
64292;BME280;50628;51.008;13.658;2024-01-07T11:31:11;100078.06;;;-3.09;100.00
64292;BME280;50628;51.008;13.658;2024-01-07T11:36:14;100075.72;;;-2.77;100.00
64292;BME280;50628;51.008;13.658;2024-01-07T11:41:16;100073.19;;;-3.19;100.00
64292;BME280;50628;51.008;13.658;2024-01-07T11:46:20;100065.41;;;-3.12;100.00
64292;BME280;50628;51.008;13.658;2024-01-07T11:51:22;100080.69;;;-3.12;100.00
64292;BME280;50628;51.008;13.658;2024-01-07T11:56:25;100084.66;;;-3.00;100.00
64292;BME280;50628;51.008;13.658;2024-01-07T12:01:29;100078.50;;;-2.88;100.00
64292;BME280;50628;51.008;13.658;2024-01-07T12:06:31;100094.59;;;-2.85;100.00
64292;BME280;50628;51.008;13.658;2024-01-07T12:11:33;100106.22;;;-3.16;100.00
64292;BME280;50628;51.008;13.658;2024-01-07T12:16:36;100109.44;;;-3.08;100.00
64292;BME280;50628;51.008;13.658;2024-01-07T12:21:39;100109.56;;;-2.71;100.00
64292;BME280;50628;51.008;13.658;2024-01-07T12:26:41;100112.66;;;-2.97;100.00
64292;BME280;50628;51.008;13.658;2024-01-07T12:31:44;100110.81;;;-2.90;100.00
64292;BME280;50628;51.008;13.658;2024-01-07T12:36:47;100119.31;;;-2.90;100.00
64292;BME280;50628;51.008;13.658;2024-01-07T12:41:49;100123.66;;;-2.96;100.00
64292;BME280;50628;51.008;13.658;2024-01-07T12:46:52;100138.25;;;-3.05;100.00
64292;BME280;50628;51.008;13.658;2024-01-07T12:51:54;100127.88;;;-2.95;100.00
64292;BME280;50628;51.008;13.658;2024-01-07T12:56:56;100127.78;;;-2.89;100.00
64292;BME280;50628;51.008;13.658;2024-01-07T13:02:00;100133.09;;;-3.01;100.00
64292;BME280;50628;51.008;13.658;2024-01-07T13:07:02;100138.25;;;-2.61;100.00
64292;BME280;50628;51.008;13.658;2024-01-07T13:12:04;100154.75;;;-2.79;100.00
64292;BME280;50628;51.008;13.658;2024-01-07T13:17:07;100150.34;;;-2.72;100.00
64292;BME280;50628;51.008;13.658;2024-01-07T13:22:10;100154.91;;;-2.88;100.00
64292;BME280;50628;51.008;13.658;2024-01-07T13:27:12;100175.97;;;-2.80;100.00
64292;BME280;50628;51.008;13.658;2024-01-07T13:32:16;100166.38;;;-3.11;100.00
64292;BME280;50628;51.008;13.658;2024-01-07T13:37:19;100158.41;;;-2.92;100.00
64292;BME280;50628;51.008;13.658;2024-01-07T13:42:22;100154.06;;;-2.45;100.00
64292;BME280;50628;51.008;13.658;2024-01-07T13:47:25;100162.69;;;-2.12;100.00
64292;BME280;50628;51.008;13.658;2024-01-07T13:52:27;100166.50;;;-2.30;100.00
64292;BME280;50628;51.008;13.658;2024-01-07T13:57:30;100167.94;;;-2.18;100.00
64292;BME280;50628;51.008;13.658;2024-01-07T14:02:33;100179.28;;;-2.31;100.00
64292;BME280;50628;51.008;13.658;2024-01-07T14:07:35;100180.03;;;-2.26;100.00
64292;BME280;50628;51.008;13.658;2024-01-07T14:12:37;100178.31;;;-2.26;100.00
64292;BME280;50628;51.008;13.658;2024-01-07T14:17:40;100187.88;;;-2.35;100.00
64292;BME280;50628;51.008;13.658;2024-01-07T14:22:43;100194.53;;;-2.30;100.00
64292;BME280;50628;51.008;13.658;2024-01-07T14:27:44;100191.16;;;-2.30;100.00
64292;BME280;50628;51.008;13.658;2024-01-07T14:32:48;100198.19;;;-2.42;100.00
64292;BME280;50628;51.008;13.658;2024-01-07T14:37:51;100206.84;;;-2.50;100.00
64292;BME280;50628;51.008;13.658;2024-01-07T14:42:53;100209.25;;;-2.43;100.00
64292;BME280;50628;51.008;13.658;2024-01-07T14:47:59;100192.53;;;-2.56;100.00
64292;BME280;50628;51.008;13.658;2024-01-07T14:53:01;100201.75;;;-2.50;100.00
64292;BME280;50628;51.008;13.658;2024-01-07T14:58:03;100192.31;;;-2.45;100.00
64292;BME280;50628;51.008;13.658;2024-01-07T15:03:06;100208.53;;;-2.49;100.00
64292;BME280;50628;51.008;13.658;2024-01-07T15:08:08;100210.06;;;-2.41;100.00
64292;BME280;50628;51.008;13.658;2024-01-07T15:13:13;100211.50;;;-2.71;100.00
64292;BME280;50628;51.008;13.658;2024-01-07T15:18:16;100225.72;;;-2.59;100.00
64292;BME280;50628;51.008;13.658;2024-01-07T15:23:18;100215.19;;;-2.87;100.00
64292;BME280;50628;51.008;13.658;2024-01-07T15:28:20;100223.13;;;-2.57;100.00
64292;BME280;50628;51.008;13.658;2024-01-07T15:33:23;100229.13;;;-2.60;100.00
64292;BME280;50628;51.008;13.658;2024-01-07T15:38:25;100235.84;;;-2.57;100.00
64292;BME280;50628;51.008;13.658;2024-01-07T15:43:27;100227.91;;;-2.41;100.00
64292;BME280;50628;51.008;13.658;2024-01-07T15:48:30;100228.38;;;-2.22;100.00
64292;BME280;50628;51.008;13.658;2024-01-07T15:53:32;100235.41;;;-2.33;100.00
64292;BME280;50628;51.008;13.658;2024-01-07T15:58:34;100245.00;;;-2.46;100.00
64292;BME280;50628;51.008;13.658;2024-01-07T16:03:38;100243.25;;;-2.44;100.00
64292;BME280;50628;51.008;13.658;2024-01-07T16:08:39;100254.44;;;-2.52;100.00
64292;BME280;50628;51.008;13.658;2024-01-07T16:13:41;100259.75;;;-2.63;100.00
64292;BME280;50628;51.008;13.658;2024-01-07T16:18:45;100261.69;;;-2.29;100.00
64292;BME280;50628;51.008;13.658;2024-01-07T16:23:47;100265.66;;;-2.16;100.00
64292;BME280;50628;51.008;13.658;2024-01-07T16:28:49;100272.72;;;-2.29;100.00
64292;BME280;50628;51.008;13.658;2024-01-07T16:33:54;100272.41;;;-2.58;100.00
64292;BME280;50628;51.008;13.658;2024-01-07T16:38:56;100282.34;;;-2.43;100.00
64292;BME280;50628;51.008;13.658;2024-01-07T16:43:57;100278.81;;;-2.37;100.00
64292;BME280;50628;51.008;13.658;2024-01-07T16:49:01;100288.00;;;-2.75;100.00
64292;BME280;50628;51.008;13.658;2024-01-07T16:54:02;100284.75;;;-2.85;100.00
64292;BME280;50628;51.008;13.658;2024-01-07T16:59:05;100298.25;;;-2.77;100.00
64292;BME280;50628;51.008;13.658;2024-01-07T17:04:08;100296.44;;;-2.72;100.00
64292;BME280;50628;51.008;13.658;2024-01-07T17:09:10;100292.19;;;-2.73;100.00
64292;BME280;50628;51.008;13.658;2024-01-07T17:14:11;100297.25;;;-2.70;100.00
64292;BME280;50628;51.008;13.658;2024-01-07T17:19:15;100286.94;;;-2.64;100.00
64292;BME280;50628;51.008;13.658;2024-01-07T17:24:16;100297.00;;;-2.56;100.00
64292;BME280;50628;51.008;13.658;2024-01-07T17:29:18;100303.09;;;-2.65;100.00
64292;BME280;50628;51.008;13.658;2024-01-07T17:34:22;100311.06;;;-2.83;100.00
64292;BME280;50628;51.008;13.658;2024-01-07T17:39:24;100305.50;;;-2.55;100.00
64292;BME280;50628;51.008;13.658;2024-01-07T17:44:26;100314.28;;;-2.72;100.00
64292;BME280;50628;51.008;13.658;2024-01-07T17:49:29;100318.81;;;-2.89;100.00
64292;BME280;50628;51.008;13.658;2024-01-07T17:54:32;100323.59;;;-2.71;100.00
64292;BME280;50628;51.008;13.658;2024-01-07T17:59:36;100326.09;;;-2.68;100.00
64292;BME280;50628;51.008;13.658;2024-01-07T18:04:41;100326.16;;;-2.71;100.00
64292;BME280;50628;51.008;13.658;2024-01-07T18:09:43;100337.00;;;-2.59;100.00
64292;BME280;50628;51.008;13.658;2024-01-07T18:14:46;100340.59;;;-2.73;100.00
64292;BME280;50628;51.008;13.658;2024-01-07T18:19:51;100344.25;;;-2.88;100.00
64292;BME280;50628;51.008;13.658;2024-01-07T18:24:52;100339.78;;;-2.75;100.00
64292;BME280;50628;51.008;13.658;2024-01-07T18:29:54;100346.47;;;-2.66;100.00
64292;BME280;50628;51.008;13.658;2024-01-07T18:34:58;100355.56;;;-2.51;100.00
64292;BME280;50628;51.008;13.658;2024-01-07T18:40:00;100355.63;;;-2.56;100.00
64292;BME280;50628;51.008;13.658;2024-01-07T18:45:03;100347.91;;;-2.53;100.00
64292;BME280;50628;51.008;13.658;2024-01-07T18:50:07;100351.59;;;-2.69;100.00
64292;BME280;50628;51.008;13.658;2024-01-07T18:55:09;100350.94;;;-2.80;100.00
64292;BME280;50628;51.008;13.658;2024-01-07T19:00:12;100355.13;;;-2.78;100.00
64292;BME280;50628;51.008;13.658;2024-01-07T19:05:15;100361.81;;;-2.71;100.00
64292;BME280;50628;51.008;13.658;2024-01-07T19:10:18;100363.22;;;-2.53;100.00
64292;BME280;50628;51.008;13.658;2024-01-07T19:15:20;100368.38;;;-2.57;100.00
64292;BME280;50628;51.008;13.658;2024-01-07T19:20:26;100368.56;;;-2.68;100.00
64292;BME280;50628;51.008;13.658;2024-01-07T19:25:30;100370.47;;;-2.79;100.00
64292;BME280;50628;51.008;13.658;2024-01-07T19:30:32;100382.72;;;-2.50;100.00
64292;BME280;50628;51.008;13.658;2024-01-07T19:35:35;100375.56;;;-2.79;100.00
64292;BME280;50628;51.008;13.658;2024-01-07T19:40:37;100378.69;;;-2.64;100.00
64292;BME280;50628;51.008;13.658;2024-01-07T19:45:39;100383.84;;;-2.67;100.00
64292;BME280;50628;51.008;13.658;2024-01-07T19:50:44;100381.53;;;-2.82;100.00
64292;BME280;50628;51.008;13.658;2024-01-07T19:55:47;100394.63;;;-2.51;100.00
64292;BME280;50628;51.008;13.658;2024-01-07T20:00:50;100390.72;;;-2.72;100.00
64292;BME280;50628;51.008;13.658;2024-01-07T20:05:53;100386.09;;;-2.48;100.00
64292;BME280;50628;51.008;13.658;2024-01-07T20:10:55;100407.25;;;-2.45;100.00
64292;BME280;50628;51.008;13.658;2024-01-07T20:15:59;100401.06;;;-2.83;100.00
64292;BME280;50628;51.008;13.658;2024-01-07T20:21:03;100401.97;;;-2.87;100.00
64292;BME280;50628;51.008;13.658;2024-01-07T20:26:04;100415.66;;;-2.92;100.00
64292;BME280;50628;51.008;13.658;2024-01-07T20:31:07;100408.97;;;-3.02;100.00
64292;BME280;50628;51.008;13.658;2024-01-07T20:36:10;100410.75;;;-3.06;100.00
64292;BME280;50628;51.008;13.658;2024-01-07T20:41:13;100414.91;;;-3.00;100.00
64292;BME280;50628;51.008;13.658;2024-01-07T20:46:19;100412.53;;;-3.13;100.00
64292;BME280;50628;51.008;13.658;2024-01-07T20:51:22;100424.22;;;-2.98;100.00
64292;BME280;50628;51.008;13.658;2024-01-07T20:56:24;100419.31;;;-3.13;100.00
64292;BME280;50628;51.008;13.658;2024-01-07T21:01:26;100422.09;;;-3.29;100.00
64292;BME280;50628;51.008;13.658;2024-01-07T21:06:31;100427.91;;;-3.20;100.00
64292;BME280;50628;51.008;13.658;2024-01-07T21:11:34;100432.16;;;-3.19;100.00
64292;BME280;50628;51.008;13.658;2024-01-07T21:16:36;100425.72;;;-3.48;100.00
64292;BME280;50628;51.008;13.658;2024-01-07T21:21:39;100434.03;;;-3.34;100.00
64292;BME280;50628;51.008;13.658;2024-01-07T21:26:41;100436.66;;;-3.41;100.00
64292;BME280;50628;51.008;13.658;2024-01-07T21:31:43;100442.56;;;-3.38;100.00
64292;BME280;50628;51.008;13.658;2024-01-07T21:36:46;100445.09;;;-3.36;100.00
64292;BME280;50628;51.008;13.658;2024-01-07T21:41:48;100438.44;;;-3.46;100.00
64292;BME280;50628;51.008;13.658;2024-01-07T21:46:50;100444.53;;;-3.63;100.00
64292;BME280;50628;51.008;13.658;2024-01-07T21:51:53;100441.97;;;-3.60;100.00
64292;BME280;50628;51.008;13.658;2024-01-07T21:56:56;100456.25;;;-3.48;100.00
64292;BME280;50628;51.008;13.658;2024-01-07T22:01:58;100453.97;;;-3.70;100.00
64292;BME280;50628;51.008;13.658;2024-01-07T22:07:02;100467.59;;;-3.75;100.00
64292;BME280;50628;51.008;13.658;2024-01-07T22:12:04;100463.38;;;-3.78;100.00
64292;BME280;50628;51.008;13.658;2024-01-07T22:17:06;100466.75;;;-3.79;100.00
64292;BME280;50628;51.008;13.658;2024-01-07T22:22:09;100481.09;;;-3.72;100.00
64292;BME280;50628;51.008;13.658;2024-01-07T22:27:11;100477.00;;;-3.86;100.00
64292;BME280;50628;51.008;13.658;2024-01-07T22:32:13;100474.47;;;-3.85;100.00
64292;BME280;50628;51.008;13.658;2024-01-07T22:37:17;100482.94;;;-3.83;100.00
64292;BME280;50628;51.008;13.658;2024-01-07T22:42:19;100481.03;;;-3.65;100.00
64292;BME280;50628;51.008;13.658;2024-01-07T22:47:20;100486.19;;;-3.70;100.00
64292;BME280;50628;51.008;13.658;2024-01-07T22:52:24;100488.53;;;-3.53;100.00
64292;BME280;50628;51.008;13.658;2024-01-07T22:57:26;100495.28;;;-3.51;100.00
64292;BME280;50628;51.008;13.658;2024-01-07T23:02:27;100491.03;;;-3.47;100.00
64292;BME280;50628;51.008;13.658;2024-01-07T23:07:31;100494.81;;;-3.85;100.00
64292;BME280;50628;51.008;13.658;2024-01-07T23:12:33;100497.88;;;-3.54;100.00
64292;BME280;50628;51.008;13.658;2024-01-07T23:17:35;100498.84;;;-3.65;100.00
64292;BME280;50628;51.008;13.658;2024-01-07T23:22:39;100498.97;;;-3.75;100.00
64292;BME280;50628;51.008;13.658;2024-01-07T23:27:41;100501.38;;;-3.65;100.00
64292;BME280;50628;51.008;13.658;2024-01-07T23:32:42;100508.00;;;-3.49;100.00
64292;BME280;50628;51.008;13.658;2024-01-07T23:37:46;100502.84;;;-3.40;100.00
64292;BME280;50628;51.008;13.658;2024-01-07T23:42:48;100508.81;;;-3.44;100.00
64292;BME280;50628;51.008;13.658;2024-01-07T23:47:49;100502.75;;;-3.32;100.00
64292;BME280;50628;51.008;13.658;2024-01-07T23:52:53;100498.63;;;-3.44;100.00
64292;BME280;50628;51.008;13.658;2024-01-07T23:57:55;100502.72;;;-3.31;100.00
